sensor_id;sensor_type;location;lat;lon;timestamp;temperature;humidity
20068;DHT22;10194;50.824;7.134;2023-04-03T00:01:37;4.50;99.90
20068;DHT22;10194;50.824;7.134;2023-04-03T00:04:05;4.50;99.90
20068;DHT22;10194;50.824;7.134;2023-04-03T00:06:31;4.50;99.90
20068;DHT22;10194;50.824;7.134;2023-04-03T00:08:57;4.50;99.90
20068;DHT22;10194;50.824;7.134;2023-04-03T00:11:23;4.40;99.90
20068;DHT22;10194;50.824;7.134;2023-04-03T00:13:50;4.40;99.90
20068;DHT22;10194;50.824;7.134;2023-04-03T00:16:16;4.30;99.90
20068;DHT22;10194;50.824;7.134;2023-04-03T00:18:42;4.30;99.90
20068;DHT22;10194;50.824;7.134;2023-04-03T00:21:10;4.30;99.90
20068;DHT22;10194;50.824;7.134;2023-04-03T00:23:37;4.30;99.90
20068;DHT22;10194;50.824;7.134;2023-04-03T00:26:03;4.30;99.90
20068;DHT22;10194;50.824;7.134;2023-04-03T00:28:29;4.20;99.90
20068;DHT22;10194;50.824;7.134;2023-04-03T00:30:55;4.20;99.90
20068;DHT22;10194;50.824;7.134;2023-04-03T00:33:21;4.30;99.90
20068;DHT22;10194;50.824;7.134;2023-04-03T00:35:48;4.30;99.90
20068;DHT22;10194;50.824;7.134;2023-04-03T00:38:14;4.30;99.90
20068;DHT22;10194;50.824;7.134;2023-04-03T00:40:45;4.30;99.90
20068;DHT22;10194;50.824;7.134;2023-04-03T00:43:20;4.30;99.90
20068;DHT22;10194;50.824;7.134;2023-04-03T00:45:50;4.30;99.90
20068;DHT22;10194;50.824;7.134;2023-04-03T00:48:21;4.30;99.90
20068;DHT22;10194;50.824;7.134;2023-04-03T00:50:52;4.30;99.90
20068;DHT22;10194;50.824;7.134;2023-04-03T00:53:22;4.20;99.90
20068;DHT22;10194;50.824;7.134;2023-04-03T00:55:52;4.20;99.90
20068;DHT22;10194;50.824;7.134;2023-04-03T00:58:20;4.20;99.90
20068;DHT22;10194;50.824;7.134;2023-04-03T01:00:52;4.20;99.90
20068;DHT22;10194;50.824;7.134;2023-04-03T01:03:23;4.10;99.90
20068;DHT22;10194;50.824;7.134;2023-04-03T01:05:49;4.10;99.90
20068;DHT22;10194;50.824;7.134;2023-04-03T01:08:15;4.10;99.90
20068;DHT22;10194;50.824;7.134;2023-04-03T01:10:41;4.10;99.90
20068;DHT22;10194;50.824;7.134;2023-04-03T01:13:28;4.00;99.90
20068;DHT22;10194;50.824;7.134;2023-04-03T01:15:55;4.00;99.90
20068;DHT22;10194;50.824;7.134;2023-04-03T01:18:24;4.00;99.90
20068;DHT22;10194;50.824;7.134;2023-04-03T01:26:49;4.00;99.90
20068;DHT22;10194;50.824;7.134;2023-04-03T01:29:16;3.90;99.90
20068;DHT22;10194;50.824;7.134;2023-04-03T01:31:56;3.90;99.90
20068;DHT22;10194;50.824;7.134;2023-04-03T01:34:24;3.80;99.90
20068;DHT22;10194;50.824;7.134;2023-04-03T01:36:50;3.80;99.90
20068;DHT22;10194;50.824;7.134;2023-04-03T01:39:16;3.80;99.90
20068;DHT22;10194;50.824;7.134;2023-04-03T01:41:43;3.70;99.90
20068;DHT22;10194;50.824;7.134;2023-04-03T01:44:08;3.60;99.90
20068;DHT22;10194;50.824;7.134;2023-04-03T01:46:34;3.60;99.90
20068;DHT22;10194;50.824;7.134;2023-04-03T01:49:01;3.60;99.90
20068;DHT22;10194;50.824;7.134;2023-04-03T01:51:27;3.50;99.90
20068;DHT22;10194;50.824;7.134;2023-04-03T01:53:52;3.50;99.90
20068;DHT22;10194;50.824;7.134;2023-04-03T01:56:18;3.50;99.90
20068;DHT22;10194;50.824;7.134;2023-04-03T01:58:44;3.50;99.90
20068;DHT22;10194;50.824;7.134;2023-04-03T02:01:10;3.50;99.90
20068;DHT22;10194;50.824;7.134;2023-04-03T02:03:36;3.50;99.90
20068;DHT22;10194;50.824;7.134;2023-04-03T02:06:02;3.40;99.90
20068;DHT22;10194;50.824;7.134;2023-04-03T02:08:27;3.30;99.90
20068;DHT22;10194;50.824;7.134;2023-04-03T02:10:53;3.30;99.90
20068;DHT22;10194;50.824;7.134;2023-04-03T02:13:19;3.30;99.90
20068;DHT22;10194;50.824;7.134;2023-04-03T02:15:46;3.30;99.90
20068;DHT22;10194;50.824;7.134;2023-04-03T02:18:13;3.20;99.90
20068;DHT22;10194;50.824;7.134;2023-04-03T02:20:38;3.20;99.90
20068;DHT22;10194;50.824;7.134;2023-04-03T02:23:04;3.30;99.90
20068;DHT22;10194;50.824;7.134;2023-04-03T02:25:31;3.30;99.90
20068;DHT22;10194;50.824;7.134;2023-04-03T02:27:57;3.30;99.90
20068;DHT22;10194;50.824;7.134;2023-04-03T02:30:23;3.20;99.90
20068;DHT22;10194;50.824;7.134;2023-04-03T02:32:49;3.20;99.90
20068;DHT22;10194;50.824;7.134;2023-04-03T02:35:15;3.20;99.90
20068;DHT22;10194;50.824;7.134;2023-04-03T02:37:41;3.30;99.90
20068;DHT22;10194;50.824;7.134;2023-04-03T02:40:07;3.20;99.90
20068;DHT22;10194;50.824;7.134;2023-04-03T02:42:33;3.20;99.90
20068;DHT22;10194;50.824;7.134;2023-04-03T02:44:59;3.10;99.90
20068;DHT22;10194;50.824;7.134;2023-04-03T02:47:28;3.10;99.90
20068;DHT22;10194;50.824;7.134;2023-04-03T02:49:54;3.00;99.90
20068;DHT22;10194;50.824;7.134;2023-04-03T02:52:20;3.00;99.90
20068;DHT22;10194;50.824;7.134;2023-04-03T02:54:46;3.00;99.90
20068;DHT22;10194;50.824;7.134;2023-04-03T02:57:12;2.90;99.90
20068;DHT22;10194;50.824;7.134;2023-04-03T02:59:38;2.90;99.90
20068;DHT22;10194;50.824;7.134;2023-04-03T03:02:07;2.90;99.90
20068;DHT22;10194;50.824;7.134;2023-04-03T03:04:34;3.00;99.90
20068;DHT22;10194;50.824;7.134;2023-04-03T03:07:00;3.00;99.90
20068;DHT22;10194;50.824;7.134;2023-04-03T03:09:26;3.00;99.90
20068;DHT22;10194;50.824;7.134;2023-04-03T03:11:52;2.90;99.90
20068;DHT22;10194;50.824;7.134;2023-04-03T03:14:18;2.90;99.90
20068;DHT22;10194;50.824;7.134;2023-04-03T03:16:44;2.90;99.90
20068;DHT22;10194;50.824;7.134;2023-04-03T03:19:10;2.90;99.90
20068;DHT22;10194;50.824;7.134;2023-04-03T03:21:36;2.80;99.90
20068;DHT22;10194;50.824;7.134;2023-04-03T03:24:02;2.80;99.90
20068;DHT22;10194;50.824;7.134;2023-04-03T03:26:28;2.80;99.90
20068;DHT22;10194;50.824;7.134;2023-04-03T03:28:54;2.70;99.90
20068;DHT22;10194;50.824;7.134;2023-04-03T03:31:20;2.80;99.90
20068;DHT22;10194;50.824;7.134;2023-04-03T03:33:45;2.70;99.90
20068;DHT22;10194;50.824;7.134;2023-04-03T03:36:11;2.70;99.90
20068;DHT22;10194;50.824;7.134;2023-04-03T03:38:37;2.70;99.90
20068;DHT22;10194;50.824;7.134;2023-04-03T03:41:03;2.70;99.90
20068;DHT22;10194;50.824;7.134;2023-04-03T03:43:29;2.60;99.90
20068;DHT22;10194;50.824;7.134;2023-04-03T03:45:55;2.60;99.90
20068;DHT22;10194;50.824;7.134;2023-04-03T03:48:21;2.60;99.90
20068;DHT22;10194;50.824;7.134;2023-04-03T03:50:49;2.60;99.90
20068;DHT22;10194;50.824;7.134;2023-04-03T03:53:15;2.60;99.90
20068;DHT22;10194;50.824;7.134;2023-04-03T03:55:40;2.60;99.90
20068;DHT22;10194;50.824;7.134;2023-04-03T03:58:06;2.50;99.90
20068;DHT22;10194;50.824;7.134;2023-04-03T04:00:32;2.50;99.90
20068;DHT22;10194;50.824;7.134;2023-04-03T04:03:02;2.50;99.90
20068;DHT22;10194;50.824;7.134;2023-04-03T04:05:37;2.50;99.90
20068;DHT22;10194;50.824;7.134;2023-04-03T04:08:03;2.50;99.90
20068;DHT22;10194;50.824;7.134;2023-04-03T04:10:28;2.50;99.90
20068;DHT22;10194;50.824;7.134;2023-04-03T04:12:54;2.50;99.90
20068;DHT22;10194;50.824;7.134;2023-04-03T04:15:20;2.50;99.90
20068;DHT22;10194;50.824;7.134;2023-04-03T04:17:47;2.50;99.90
20068;DHT22;10194;50.824;7.134;2023-04-03T04:20:13;2.40;99.90
20068;DHT22;10194;50.824;7.134;2023-04-03T04:22:39;2.30;99.90
20068;DHT22;10194;50.824;7.134;2023-04-03T04:25:04;2.40;99.90
20068;DHT22;10194;50.824;7.134;2023-04-03T04:27:31;2.30;99.90
20068;DHT22;10194;50.824;7.134;2023-04-03T04:29:56;2.30;99.90
20068;DHT22;10194;50.824;7.134;2023-04-03T04:32:22;2.30;99.90
20068;DHT22;10194;50.824;7.134;2023-04-03T04:34:48;2.20;99.90
20068;DHT22;10194;50.824;7.134;2023-04-03T04:37:13;2.10;99.90
20068;DHT22;10194;50.824;7.134;2023-04-03T04:39:39;2.10;99.90
20068;DHT22;10194;50.824;7.134;2023-04-03T04:42:05;2.20;99.90
20068;DHT22;10194;50.824;7.134;2023-04-03T04:44:32;2.30;99.90
20068;DHT22;10194;50.824;7.134;2023-04-03T04:46:58;2.30;99.90
20068;DHT22;10194;50.824;7.134;2023-04-03T04:49:23;2.20;99.90
20068;DHT22;10194;50.824;7.134;2023-04-03T04:51:49;2.30;99.90
20068;DHT22;10194;50.824;7.134;2023-04-03T04:54:15;2.20;99.90
20068;DHT22;10194;50.824;7.134;2023-04-03T04:56:41;2.20;99.90
20068;DHT22;10194;50.824;7.134;2023-04-03T04:59:06;2.10;99.90
20068;DHT22;10194;50.824;7.134;2023-04-03T05:01:32;2.10;99.90
20068;DHT22;10194;50.824;7.134;2023-04-03T05:03:58;2.20;99.90
20068;DHT22;10194;50.824;7.134;2023-04-03T05:06:24;2.30;99.90
20068;DHT22;10194;50.824;7.134;2023-04-03T05:08:49;2.20;99.90
20068;DHT22;10194;50.824;7.134;2023-04-03T05:11:15;2.20;99.90
20068;DHT22;10194;50.824;7.134;2023-04-03T05:13:41;2.20;99.90
20068;DHT22;10194;50.824;7.134;2023-04-03T05:16:07;2.20;99.90
20068;DHT22;10194;50.824;7.134;2023-04-03T05:18:32;2.30;99.90
20068;DHT22;10194;50.824;7.134;2023-04-03T05:20:58;2.20;99.90
20068;DHT22;10194;50.824;7.134;2023-04-03T05:23:24;2.30;99.90
20068;DHT22;10194;50.824;7.134;2023-04-03T05:25:50;2.30;99.90
20068;DHT22;10194;50.824;7.134;2023-04-03T05:28:16;2.40;99.90
20068;DHT22;10194;50.824;7.134;2023-04-03T05:30:41;2.30;99.90
20068;DHT22;10194;50.824;7.134;2023-04-03T05:33:07;2.30;99.90
20068;DHT22;10194;50.824;7.134;2023-04-03T05:35:35;2.20;99.90
20068;DHT22;10194;50.824;7.134;2023-04-03T05:38:05;2.20;99.90
20068;DHT22;10194;50.824;7.134;2023-04-03T05:40:31;2.20;99.90
20068;DHT22;10194;50.824;7.134;2023-04-03T05:42:56;2.30;99.90
20068;DHT22;10194;50.824;7.134;2023-04-03T05:45:22;2.30;99.90
20068;DHT22;10194;50.824;7.134;2023-04-03T05:47:48;2.20;99.90
20068;DHT22;10194;50.824;7.134;2023-04-03T05:50:14;2.30;99.90
20068;DHT22;10194;50.824;7.134;2023-04-03T05:52:44;2.30;99.90
20068;DHT22;10194;50.824;7.134;2023-04-03T05:55:11;2.40;99.90
20068;DHT22;10194;50.824;7.134;2023-04-03T05:57:37;2.50;99.90
20068;DHT22;10194;50.824;7.134;2023-04-03T06:00:05;2.80;99.90
20068;DHT22;10194;50.824;7.134;2023-04-03T06:02:32;3.30;99.90
20068;DHT22;10194;50.824;7.134;2023-04-03T06:04:58;3.70;99.90
20068;DHT22;10194;50.824;7.134;2023-04-03T06:07:24;4.10;99.90
20068;DHT22;10194;50.824;7.134;2023-04-03T06:09:54;4.10;99.90
20068;DHT22;10194;50.824;7.134;2023-04-03T06:12:21;4.20;99.90
20068;DHT22;10194;50.824;7.134;2023-04-03T06:14:48;4.40;99.90
20068;DHT22;10194;50.824;7.134;2023-04-03T06:17:15;4.70;99.90
20068;DHT22;10194;50.824;7.134;2023-04-03T06:19:42;5.40;99.90
20068;DHT22;10194;50.824;7.134;2023-04-03T06:22:07;5.90;99.90
20068;DHT22;10194;50.824;7.134;2023-04-03T06:24:33;6.40;99.90
20068;DHT22;10194;50.824;7.134;2023-04-03T06:26:59;6.50;99.90
20068;DHT22;10194;50.824;7.134;2023-04-03T06:29:25;6.70;99.90
20068;DHT22;10194;50.824;7.134;2023-04-03T06:31:51;6.90;99.90
20068;DHT22;10194;50.824;7.134;2023-04-03T06:34:17;7.50;99.90
20068;DHT22;10194;50.824;7.134;2023-04-03T06:36:43;7.90;99.90
20068;DHT22;10194;50.824;7.134;2023-04-03T06:39:16;7.80;99.90
20068;DHT22;10194;50.824;7.134;2023-04-03T06:41:46;8.00;99.90
20068;DHT22;10194;50.824;7.134;2023-04-03T06:44:12;8.00;99.90
20068;DHT22;10194;50.824;7.134;2023-04-03T06:46:41;8.10;99.90
20068;DHT22;10194;50.824;7.134;2023-04-03T06:49:07;8.30;99.90
20068;DHT22;10194;50.824;7.134;2023-04-03T06:51:33;8.60;99.90
20068;DHT22;10194;50.824;7.134;2023-04-03T06:54:00;8.40;99.90
20068;DHT22;10194;50.824;7.134;2023-04-03T06:56:27;8.30;99.90
20068;DHT22;10194;50.824;7.134;2023-04-03T06:58:54;8.30;99.90
20068;DHT22;10194;50.824;7.134;2023-04-03T07:01:22;8.80;99.90
20068;DHT22;10194;50.824;7.134;2023-04-03T07:03:50;8.30;99.90
20068;DHT22;10194;50.824;7.134;2023-04-03T07:06:17;8.50;99.90
20068;DHT22;10194;50.824;7.134;2023-04-03T07:08:44;8.80;99.90
20068;DHT22;10194;50.824;7.134;2023-04-03T07:11:11;8.70;99.90
20068;DHT22;10194;50.824;7.134;2023-04-03T07:13:38;8.60;99.90
20068;DHT22;10194;50.824;7.134;2023-04-03T07:16:05;8.60;99.90
20068;DHT22;10194;50.824;7.134;2023-04-03T07:18:32;8.50;99.90
20068;DHT22;10194;50.824;7.134;2023-04-03T07:20:58;8.90;99.90
20068;DHT22;10194;50.824;7.134;2023-04-03T07:23:24;8.90;99.90
20068;DHT22;10194;50.824;7.134;2023-04-03T07:25:51;9.10;99.90
20068;DHT22;10194;50.824;7.134;2023-04-03T07:28:19;8.50;99.90
20068;DHT22;10194;50.824;7.134;2023-04-03T07:30:49;9.10;99.90
20068;DHT22;10194;50.824;7.134;2023-04-03T07:33:18;9.60;99.90
20068;DHT22;10194;50.824;7.134;2023-04-03T07:35:45;8.60;99.90
20068;DHT22;10194;50.824;7.134;2023-04-03T07:38:12;8.40;99.90
20068;DHT22;10194;50.824;7.134;2023-04-03T07:40:38;8.30;99.90
20068;DHT22;10194;50.824;7.134;2023-04-03T07:43:05;8.60;99.90
20068;DHT22;10194;50.824;7.134;2023-04-03T07:45:34;8.10;99.90
20068;DHT22;10194;50.824;7.134;2023-04-03T07:48:01;8.10;99.90
20068;DHT22;10194;50.824;7.134;2023-04-03T07:50:27;7.90;99.90
20068;DHT22;10194;50.824;7.134;2023-04-03T07:52:55;7.50;99.90
20068;DHT22;10194;50.824;7.134;2023-04-03T07:55:23;7.50;99.90
20068;DHT22;10194;50.824;7.134;2023-04-03T07:57:49;7.50;99.90
20068;DHT22;10194;50.824;7.134;2023-04-03T08:00:16;7.20;99.90
20068;DHT22;10194;50.824;7.134;2023-04-03T08:02:43;7.00;99.90
20068;DHT22;10194;50.824;7.134;2023-04-03T08:05:10;7.20;99.90
20068;DHT22;10194;50.824;7.134;2023-04-03T08:07:37;7.20;99.90
20068;DHT22;10194;50.824;7.134;2023-04-03T08:10:04;7.30;99.90
20068;DHT22;10194;50.824;7.134;2023-04-03T08:12:30;7.40;99.90
20068;DHT22;10194;50.824;7.134;2023-04-03T08:14:57;7.10;99.90
20068;DHT22;10194;50.824;7.134;2023-04-03T08:17:25;7.10;99.90
20068;DHT22;10194;50.824;7.134;2023-04-03T08:19:51;6.90;99.90
20068;DHT22;10194;50.824;7.134;2023-04-03T08:22:17;6.90;99.90
20068;DHT22;10194;50.824;7.134;2023-04-03T08:24:43;7.00;99.90
20068;DHT22;10194;50.824;7.134;2023-04-03T08:27:09;7.50;99.90
20068;DHT22;10194;50.824;7.134;2023-04-03T08:29:35;7.30;99.90
20068;DHT22;10194;50.824;7.134;2023-04-03T08:32:04;7.30;99.90
20068;DHT22;10194;50.824;7.134;2023-04-03T08:34:30;7.00;99.90
20068;DHT22;10194;50.824;7.134;2023-04-03T08:37:00;7.20;99.90
20068;DHT22;10194;50.824;7.134;2023-04-03T08:39:27;7.20;99.90
20068;DHT22;10194;50.824;7.134;2023-04-03T08:41:56;7.50;99.90
20068;DHT22;10194;50.824;7.134;2023-04-03T08:44:46;7.70;99.90
20068;DHT22;10194;50.824;7.134;2023-04-03T08:47:34;7.60;99.90
20068;DHT22;10194;50.824;7.134;2023-04-03T08:50:12;7.60;99.90
20068;DHT22;10194;50.824;7.134;2023-04-03T08:52:44;7.50;99.90
20068;DHT22;10194;50.824;7.134;2023-04-03T08:55:31;7.10;99.90
20068;DHT22;10194;50.824;7.134;2023-04-03T09:03:20;7.40;99.90
20068;DHT22;10194;50.824;7.134;2023-04-03T09:08:31;7.40;99.90
20068;DHT22;10194;50.824;7.134;2023-04-03T09:16:58;7.40;99.90
20068;DHT22;10194;50.824;7.134;2023-04-03T09:22:13;7.50;99.90
20068;DHT22;10194;50.824;7.134;2023-04-03T09:25:05;7.50;99.90
20068;DHT22;10194;50.824;7.134;2023-04-03T09:27:39;7.80;99.90
20068;DHT22;10194;50.824;7.134;2023-04-03T09:30:05;7.90;99.90
20068;DHT22;10194;50.824;7.134;2023-04-03T09:32:36;7.80;99.90
20068;DHT22;10194;50.824;7.134;2023-04-03T09:35:05;7.70;99.90
20068;DHT22;10194;50.824;7.134;2023-04-03T09:37:44;7.60;99.90
20068;DHT22;10194;50.824;7.134;2023-04-03T09:42:59;7.80;99.90
20068;DHT22;10194;50.824;7.134;2023-04-03T09:45:33;7.80;99.90
20068;DHT22;10194;50.824;7.134;2023-04-03T09:50:52;8.10;99.50
20068;DHT22;10194;50.824;7.134;2023-04-03T09:53:30;8.10;98.40
20068;DHT22;10194;50.824;7.134;2023-04-03T09:56:00;7.90;98.30
20068;DHT22;10194;50.824;7.134;2023-04-03T09:58:36;8.00;99.10
20068;DHT22;10194;50.824;7.134;2023-04-03T10:01:04;7.50;99.40
20068;DHT22;10194;50.824;7.134;2023-04-03T10:03:35;7.70;99.00
20068;DHT22;10194;50.824;7.134;2023-04-03T10:06:22;7.90;98.90
20068;DHT22;10194;50.824;7.134;2023-04-03T10:09:00;8.10;98.50
20068;DHT22;10194;50.824;7.134;2023-04-03T10:11:30;8.00;97.70
20068;DHT22;10194;50.824;7.134;2023-04-03T10:14:01;8.00;97.90
20068;DHT22;10194;50.824;7.134;2023-04-03T10:16:36;8.30;99.00
20068;DHT22;10194;50.824;7.134;2023-04-03T10:20:03;8.10;99.00
20068;DHT22;10194;50.824;7.134;2023-04-03T10:22:18;8.20;98.50
20068;DHT22;10194;50.824;7.134;2023-04-03T10:30:32;8.50;95.70
20068;DHT22;10194;50.824;7.134;2023-04-03T10:36:07;8.60;95.40
20068;DHT22;10194;50.824;7.134;2023-04-03T10:51:12;8.20;93.10
20068;DHT22;10194;50.824;7.134;2023-04-03T10:54:01;8.10;92.20
20068;DHT22;10194;50.824;7.134;2023-04-03T10:57:08;8.00;92.10
20068;DHT22;10194;50.824;7.134;2023-04-03T10:59:31;8.10;92.50
20068;DHT22;10194;50.824;7.134;2023-04-03T11:02:16;8.30;93.90
20068;DHT22;10194;50.824;7.134;2023-04-03T11:04:53;8.30;93.40
20068;DHT22;10194;50.824;7.134;2023-04-03T11:07:26;8.40;93.50
20068;DHT22;10194;50.824;7.134;2023-04-03T11:10:35;8.40;92.30
20068;DHT22;10194;50.824;7.134;2023-04-03T11:15:43;8.40;92.70
20068;DHT22;10194;50.824;7.134;2023-04-03T11:18:27;8.50;91.90
20068;DHT22;10194;50.824;7.134;2023-04-03T11:21:07;8.60;91.90
20068;DHT22;10194;50.824;7.134;2023-04-03T11:23:39;8.30;90.20
20068;DHT22;10194;50.824;7.134;2023-04-03T11:26:27;8.10;90.60
20068;DHT22;10194;50.824;7.134;2023-04-03T11:29:03;8.00;91.80
20068;DHT22;10194;50.824;7.134;2023-04-03T11:36:56;8.20;91.10
20068;DHT22;10194;50.824;7.134;2023-04-03T11:39:36;8.30;91.30
20068;DHT22;10194;50.824;7.134;2023-04-03T11:42:32;8.30;90.30
20068;DHT22;10194;50.824;7.134;2023-04-03T11:45:17;8.10;89.60
20068;DHT22;10194;50.824;7.134;2023-04-03T11:58:18;8.60;89.80
20068;DHT22;10194;50.824;7.134;2023-04-03T12:01:07;8.50;87.70
20068;DHT22;10194;50.824;7.134;2023-04-03T12:35:21;8.50;81.80
20068;DHT22;10194;50.824;7.134;2023-04-03T12:40:48;8.60;82.30
20068;DHT22;10194;50.824;7.134;2023-04-03T12:46:21;8.60;80.20
20068;DHT22;10194;50.824;7.134;2023-04-03T12:48:52;8.80;81.70
20068;DHT22;10194;50.824;7.134;2023-04-03T12:51:40;8.90;82.60
20068;DHT22;10194;50.824;7.134;2023-04-03T12:54:25;9.00;80.30
20068;DHT22;10194;50.824;7.134;2023-04-03T12:57:18;9.00;80.50
20068;DHT22;10194;50.824;7.134;2023-04-03T12:59:46;8.90;77.30
20068;DHT22;10194;50.824;7.134;2023-04-03T13:04:57;9.20;78.90
20068;DHT22;10194;50.824;7.134;2023-04-03T13:07:30;9.30;76.80
20068;DHT22;10194;50.824;7.134;2023-04-03T13:10:17;9.10;77.80
20068;DHT22;10194;50.824;7.134;2023-04-03T13:12:51;9.10;74.10
20068;DHT22;10194;50.824;7.134;2023-04-03T13:15:24;9.00;76.80
20068;DHT22;10194;50.824;7.134;2023-04-03T13:17:55;9.10;78.30
20068;DHT22;10194;50.824;7.134;2023-04-03T13:20:31;9.20;79.20
20068;DHT22;10194;50.824;7.134;2023-04-03T13:23:02;9.10;77.90
20068;DHT22;10194;50.824;7.134;2023-04-03T13:25:33;9.10;79.00
20068;DHT22;10194;50.824;7.134;2023-04-03T13:28:02;9.10;77.80
20068;DHT22;10194;50.824;7.134;2023-04-03T13:30:34;9.00;79.10
20068;DHT22;10194;50.824;7.134;2023-04-03T13:33:18;9.20;80.00
20068;DHT22;10194;50.824;7.134;2023-04-03T13:35:47;9.10;78.20
20068;DHT22;10194;50.824;7.134;2023-04-03T13:38:28;9.10;79.40
20068;DHT22;10194;50.824;7.134;2023-04-03T13:41:00;9.20;79.10
20068;DHT22;10194;50.824;7.134;2023-04-03T13:43:36;9.20;78.90
20068;DHT22;10194;50.824;7.134;2023-04-03T13:48:55;9.00;79.40
20068;DHT22;10194;50.824;7.134;2023-04-03T13:51:25;9.00;81.90
20068;DHT22;10194;50.824;7.134;2023-04-03T13:53:59;9.20;80.70
20068;DHT22;10194;50.824;7.134;2023-04-03T13:56:35;9.30;79.70
20068;DHT22;10194;50.824;7.134;2023-04-03T13:59:23;9.20;78.70
20068;DHT22;10194;50.824;7.134;2023-04-03T14:07:16;9.20;78.90
20068;DHT22;10194;50.824;7.134;2023-04-03T14:09:43;9.30;79.30
20068;DHT22;10194;50.824;7.134;2023-04-03T14:12:24;9.10;81.50
20068;DHT22;10194;50.824;7.134;2023-04-03T14:14:51;9.40;80.20
20068;DHT22;10194;50.824;7.134;2023-04-03T14:17:22;9.40;78.60
20068;DHT22;10194;50.824;7.134;2023-04-03T14:19:50;9.30;78.40
20068;DHT22;10194;50.824;7.134;2023-04-03T14:22:21;9.40;78.60
20068;DHT22;10194;50.824;7.134;2023-04-03T14:24:49;9.40;78.80
20068;DHT22;10194;50.824;7.134;2023-04-03T14:29:43;9.50;80.50
20068;DHT22;10194;50.824;7.134;2023-04-03T14:32:12;9.50;80.00
20068;DHT22;10194;50.824;7.134;2023-04-03T14:34:40;9.40;78.40
20068;DHT22;10194;50.824;7.134;2023-04-03T14:37:11;9.40;78.80
20068;DHT22;10194;50.824;7.134;2023-04-03T14:39:38;9.50;79.50
20068;DHT22;10194;50.824;7.134;2023-04-03T14:42:05;9.50;80.40
20068;DHT22;10194;50.824;7.134;2023-04-03T14:44:31;9.50;79.60
20068;DHT22;10194;50.824;7.134;2023-04-03T14:46:57;9.60;77.80
20068;DHT22;10194;50.824;7.134;2023-04-03T14:49:27;9.50;79.30
20068;DHT22;10194;50.824;7.134;2023-04-03T14:51:55;9.60;79.00
20068;DHT22;10194;50.824;7.134;2023-04-03T14:54:22;9.50;77.40
20068;DHT22;10194;50.824;7.134;2023-04-03T14:56:54;9.50;78.10
20068;DHT22;10194;50.824;7.134;2023-04-03T14:59:21;9.60;79.30
20068;DHT22;10194;50.824;7.134;2023-04-03T15:01:47;9.70;77.50
20068;DHT22;10194;50.824;7.134;2023-04-03T15:04:18;9.50;77.40
20068;DHT22;10194;50.824;7.134;2023-04-03T15:06:46;9.50;78.10
20068;DHT22;10194;50.824;7.134;2023-04-03T15:09:21;9.60;78.20
20068;DHT22;10194;50.824;7.134;2023-04-03T15:11:53;9.50;78.00
20068;DHT22;10194;50.824;7.134;2023-04-03T15:14:19;9.50;77.10
20068;DHT22;10194;50.824;7.134;2023-04-03T15:16:46;9.50;77.20
20068;DHT22;10194;50.824;7.134;2023-04-03T15:19:12;9.60;79.10
20068;DHT22;10194;50.824;7.134;2023-04-03T15:21:38;9.50;78.30
20068;DHT22;10194;50.824;7.134;2023-04-03T15:24:05;9.60;78.50
20068;DHT22;10194;50.824;7.134;2023-04-03T15:26:31;9.70;80.00
20068;DHT22;10194;50.824;7.134;2023-04-03T15:28:58;9.80;79.20
20068;DHT22;10194;50.824;7.134;2023-04-03T15:31:24;9.70;78.10
20068;DHT22;10194;50.824;7.134;2023-04-03T15:33:49;9.70;78.00
20068;DHT22;10194;50.824;7.134;2023-04-03T15:36:15;9.60;79.40
20068;DHT22;10194;50.824;7.134;2023-04-03T15:38:41;9.50;78.70
20068;DHT22;10194;50.824;7.134;2023-04-03T15:41:07;9.50;79.40
20068;DHT22;10194;50.824;7.134;2023-04-03T15:43:32;9.50;78.80
20068;DHT22;10194;50.824;7.134;2023-04-03T15:46:01;9.50;80.00
20068;DHT22;10194;50.824;7.134;2023-04-03T15:48:28;9.60;78.40
20068;DHT22;10194;50.824;7.134;2023-04-03T15:50:57;9.50;77.30
20068;DHT22;10194;50.824;7.134;2023-04-03T15:53:22;9.40;76.20
20068;DHT22;10194;50.824;7.134;2023-04-03T15:55:48;9.50;78.40
20068;DHT22;10194;50.824;7.134;2023-04-03T15:58:14;9.50;76.90
20068;DHT22;10194;50.824;7.134;2023-04-03T16:00:40;9.50;77.60
20068;DHT22;10194;50.824;7.134;2023-04-03T16:03:11;9.50;75.30
20068;DHT22;10194;50.824;7.134;2023-04-03T16:05:38;9.40;75.30
20068;DHT22;10194;50.824;7.134;2023-04-03T16:08:06;9.40;76.60
20068;DHT22;10194;50.824;7.134;2023-04-03T16:10:34;9.40;77.10
20068;DHT22;10194;50.824;7.134;2023-04-03T16:13:01;9.40;77.00
20068;DHT22;10194;50.824;7.134;2023-04-03T16:15:27;9.40;76.50
20068;DHT22;10194;50.824;7.134;2023-04-03T16:17:56;9.40;77.00
20068;DHT22;10194;50.824;7.134;2023-04-03T16:20:23;9.40;76.60
20068;DHT22;10194;50.824;7.134;2023-04-03T16:22:50;9.40;78.70
20068;DHT22;10194;50.824;7.134;2023-04-03T16:25:16;9.30;78.80
20068;DHT22;10194;50.824;7.134;2023-04-03T16:27:42;9.20;77.90
20068;DHT22;10194;50.824;7.134;2023-04-03T16:30:09;9.20;80.30
20068;DHT22;10194;50.824;7.134;2023-04-03T16:32:36;9.20;79.80
20068;DHT22;10194;50.824;7.134;2023-04-03T16:35:02;9.20;79.10
20068;DHT22;10194;50.824;7.134;2023-04-03T16:37:28;9.20;78.70
20068;DHT22;10194;50.824;7.134;2023-04-03T16:39:54;9.30;79.80
20068;DHT22;10194;50.824;7.134;2023-04-03T16:42:20;9.10;78.10
20068;DHT22;10194;50.824;7.134;2023-04-03T16:44:46;9.10;79.50
20068;DHT22;10194;50.824;7.134;2023-04-03T16:47:11;9.10;77.60
20068;DHT22;10194;50.824;7.134;2023-04-03T16:49:39;9.00;77.80
20068;DHT22;10194;50.824;7.134;2023-04-03T16:52:05;9.00;79.20
20068;DHT22;10194;50.824;7.134;2023-04-03T16:54:31;9.00;78.30
20068;DHT22;10194;50.824;7.134;2023-04-03T16:56:57;8.90;79.90
20068;DHT22;10194;50.824;7.134;2023-04-03T16:59:23;8.90;80.10
20068;DHT22;10194;50.824;7.134;2023-04-03T17:01:49;8.90;78.70
20068;DHT22;10194;50.824;7.134;2023-04-03T17:04:15;8.90;79.40
20068;DHT22;10194;50.824;7.134;2023-04-03T17:06:41;8.80;79.20
20068;DHT22;10194;50.824;7.134;2023-04-03T17:09:07;8.80;79.40
20068;DHT22;10194;50.824;7.134;2023-04-03T17:11:34;8.70;79.70
20068;DHT22;10194;50.824;7.134;2023-04-03T17:14:00;8.70;79.90
20068;DHT22;10194;50.824;7.134;2023-04-03T17:16:27;8.70;80.20
20068;DHT22;10194;50.824;7.134;2023-04-03T17:18:54;8.70;80.10
20068;DHT22;10194;50.824;7.134;2023-04-03T17:21:20;8.60;79.50
20068;DHT22;10194;50.824;7.134;2023-04-03T17:23:50;8.60;80.10
20068;DHT22;10194;50.824;7.134;2023-04-03T17:26:22;8.40;81.00
20068;DHT22;10194;50.824;7.134;2023-04-03T17:28:49;8.40;82.50
20068;DHT22;10194;50.824;7.134;2023-04-03T17:31:15;8.30;81.70
20068;DHT22;10194;50.824;7.134;2023-04-03T17:33:41;8.30;82.10
20068;DHT22;10194;50.824;7.134;2023-04-03T17:36:07;8.30;81.40
20068;DHT22;10194;50.824;7.134;2023-04-03T17:38:33;8.30;82.30
20068;DHT22;10194;50.824;7.134;2023-04-03T17:41:02;8.20;82.60
20068;DHT22;10194;50.824;7.134;2023-04-03T17:43:30;8.20;83.90
20068;DHT22;10194;50.824;7.134;2023-04-03T17:46:04;8.10;83.20
20068;DHT22;10194;50.824;7.134;2023-04-03T17:48:35;7.90;84.20
20068;DHT22;10194;50.824;7.134;2023-04-03T17:51:15;7.90;84.30
20068;DHT22;10194;50.824;7.134;2023-04-03T17:53:46;7.80;84.90
20068;DHT22;10194;50.824;7.134;2023-04-03T17:56:17;7.80;84.80